Time;durP1;ratioP1;P1;durP2;ratioP2;P2;SDS_P1;SDS_P2;PMS_P1;PMS_P2;Temp;Humidity;BMP_temperature;BMP_pressure;BME280_temperature;BME280_humidity;BME280_pressure;Samples;Min_cycle;Max_cycle;Signal;HPM_P1;HPM_P2
2023/07/13 00:00:10;;;;;;;;;;;26.30;90.70;;;;;;5099847;28;20423;-47
2023/07/13 00:02:36;;;;;;;;;;;26.30;90.70;;;;;;5100182;28;19914;-45
2023/07/13 00:05:02;;;;;;;;;;;26.30;90.70;;;;;;5099923;28;20007;-48
2023/07/13 00:07:27;;;;;;;;;;;26.30;90.70;;;;;;5100176;28;19962;-46
2023/07/13 00:09:53;;;;;;;;;;;26.30;90.70;;;;;;5081918;28;19963;-43
2023/07/13 00:12:27;;;;;;;;;;;26.30;90.70;;;;;;5096770;28;19954;-43
2023/07/13 00:14:53;;;;;;;;;;;26.30;90.70;;;;;;5096919;28;19908;-42
2023/07/13 00:17:18;;;;;;;;;;;26.30;90.70;;;;;;5096497;28;19912;-47
2023/07/13 00:19:43;;;;;;;;;;;26.30;90.70;;;;;;5096635;28;20384;-47
2023/07/13 00:22:09;;;;;;;;;;;26.30;90.70;;;;;;5096691;28;19908;-44
2023/07/13 00:24:35;;;;;;;;;;;26.30;90.80;;;;;;5096542;28;19908;-42
2023/07/13 00:27:01;;;;;;;;;;;26.30;90.70;;;;;;5096499;28;19909;-46
2023/07/13 00:29:26;;;;;;;;;;;26.30;90.70;;;;;;5096809;28;19908;-43
2023/07/13 00:31:52;;;;;;;;;;;26.30;90.70;;;;;;5078536;28;19916;-43
2023/07/13 00:34:17;;;;;;;;;;;26.30;90.80;;;;;;5096606;28;20301;-42
2023/07/13 00:36:43;;;;;;;;;;;26.30;91.00;;;;;;5096466;28;19916;-44
2023/07/13 00:39:08;;;;;;;;;;;26.30;90.70;;;;;;5096291;28;19912;-45
2023/07/13 00:41:34;;;;;;;;;;;26.30;90.70;;;;;;5096192;28;19946;-45
2023/07/13 00:43:59;;;;;;;;;;;26.30;90.80;;;;;;5096182;28;19916;-46
2023/07/13 00:46:25;;;;;;;;;;;26.30;90.80;;;;;;5096747;28;20389;-41
2023/07/13 00:48:51;;;;;;;;;;;26.30;90.80;;;;;;5096276;28;19908;-43
2023/07/13 00:51:28;;;;;;;;;;;26.30;90.80;;;;;;5096358;28;19915;-43
2023/07/13 00:53:55;;;;;;;;;;;26.30;90.80;;;;;;5096275;28;20002;-45
2023/07/13 00:56:21;;;;;;;;;;;26.30;90.70;;;;;;5096067;28;20262;-44
2023/07/13 00:58:47;;;;;;;;;;;26.30;90.70;;;;;;5095850;28;19991;-42
2023/07/13 01:01:12;;;;;;;;;;;26.30;90.70;;;;;;5096079;28;19909;-44
2023/07/13 01:03:40;;;;;;;;;;;26.30;90.70;;;;;;5096155;28;19977;-44
2023/07/13 01:06:05;;;;;;;;;;;26.30;90.70;;;;;;5095692;28;19915;-44
2023/07/13 01:08:31;;;;;;;;;;;26.30;90.70;;;;;;5095691;28;19908;-42
2023/07/13 01:10:58;;;;;;;;;;;26.30;90.70;;;;;;5096194;28;19951;-46
2023/07/13 01:13:23;;;;;;;;;;;26.30;90.70;;;;;;5095860;28;19915;-46
2023/07/13 01:15:50;;;;;;;;;;;26.30;90.70;;;;;;5095742;28;19918;-45
2023/07/13 01:18:18;;;;;;;;;;;26.30;90.80;;;;;;5095696;28;20351;-46
2023/07/13 01:20:55;;;;;;;;;;;26.30;90.70;;;;;;5095713;28;20015;-45
2023/07/13 01:23:21;;;;;;;;;;;26.20;90.70;;;;;;5095572;28;20436;-43
2023/07/13 01:25:47;;;;;;;;;;;26.30;90.80;;;;;;5095475;28;19912;-45
2023/07/13 01:28:12;;;;;;;;;;;26.30;90.80;;;;;;5095314;28;19908;-42
2023/07/13 01:30:39;;;;;;;;;;;26.30;90.80;;;;;;5095537;28;20341;-43
2023/07/13 01:33:06;;;;;;;;;;;26.30;90.80;;;;;;5095262;28;20374;-44
2023/07/13 01:35:32;;;;;;;;;;;26.20;90.70;;;;;;5095258;28;20363;-46
2023/07/13 01:38:00;;;;;;;;;;;26.20;90.70;;;;;;5095774;28;19919;-46
2023/07/13 01:40:25;;;;;;;;;;;26.20;90.70;;;;;;5095311;28;19955;-44
2023/07/13 01:42:51;;;;;;;;;;;26.20;90.80;;;;;;5095362;28;20278;-43
2023/07/13 01:45:16;;;;;;;;;;;26.20;90.80;;;;;;5095225;28;19920;-44
2023/07/13 01:47:41;;;;;;;;;;;26.20;90.80;;;;;;5095606;28;20000;-43
2023/07/13 01:50:07;;;;;;;;;;;26.20;90.80;;;;;;5095243;28;20266;-48
2023/07/13 01:52:33;;;;;;;;;;;26.20;90.80;;;;;;5095290;28;20273;-45
2023/07/13 01:54:58;;;;;;;;;;;26.20;90.80;;;;;;5095314;28;20430;-46
2023/07/13 01:57:23;;;;;;;;;;;26.30;90.80;;;;;;5094765;28;19923;-46
2023/07/13 01:59:49;;;;;;;;;;;26.20;90.80;;;;;;5095262;28;20003;-42
2023/07/13 02:02:14;;;;;;;;;;;26.20;90.80;;;;;;5095083;28;20316;-44
2023/07/13 02:04:40;;;;;;;;;;;26.20;90.80;;;;;;5060123;28;19908;-43
2023/07/13 02:07:05;;;;;;;;;;;26.20;90.80;;;;;;5094679;28;19934;-43
2023/07/13 02:09:31;;;;;;;;;;;26.20;90.80;;;;;;5094698;28;19914;-45
2023/07/13 02:11:56;;;;;;;;;;;26.20;90.80;;;;;;5094795;28;19916;-44
2023/07/13 02:14:22;;;;;;;;;;;26.20;90.80;;;;;;5094855;28;19915;-44
2023/07/13 02:16:48;;;;;;;;;;;26.20;90.80;;;;;;5094711;28;19912;-46
2023/07/13 02:19:14;;;;;;;;;;;26.20;90.80;;;;;;5095089;28;19923;-45
2023/07/13 02:21:39;;;;;;;;;;;26.20;90.80;;;;;;5094383;28;19908;-44
2023/07/13 02:24:05;;;;;;;;;;;26.20;90.80;;;;;;5094692;28;19908;-46
2023/07/13 02:26:30;;;;;;;;;;;26.20;90.80;;;;;;5094666;28;19916;-44
2023/07/13 02:28:56;;;;;;;;;;;26.20;90.80;;;;;;5094659;28;19919;-43
2023/07/13 02:31:21;;;;;;;;;;;26.20;90.80;;;;;;5094574;28;20349;-45
2023/07/13 02:33:47;;;;;;;;;;;26.20;90.80;;;;;;5094269;28;19970;-44
2023/07/13 02:36:16;;;;;;;;;;;26.20;90.90;;;;;;5093666;28;20260;-44
2023/07/13 02:38:41;;;;;;;;;;;26.20;90.90;;;;;;5094405;28;19912;-44
2023/07/13 02:41:08;;;;;;;;;;;26.20;90.90;;;;;;5094369;28;20013;-44
2023/07/13 02:43:34;;;;;;;;;;;26.20;90.90;;;;;;5094069;28;19944;-43
2023/07/13 02:46:04;;;;;;;;;;;26.20;90.90;;;;;;5094408;28;20378;-43
2023/07/13 02:48:29;;;;;;;;;;;26.20;90.90;;;;;;5094170;28;20013;-43
2023/07/13 02:50:55;;;;;;;;;;;26.20;90.90;;;;;;5094314;28;19908;-43
2023/07/13 02:53:20;;;;;;;;;;;26.20;90.90;;;;;;5094202;28;19959;-47
2023/07/13 02:55:47;;;;;;;;;;;26.20;90.90;;;;;;5094181;28;19912;-46
2023/07/13 02:58:16;;;;;;;;;;;26.20;90.90;;;;;;5092439;28;19917;-44
2023/07/13 03:00:42;;;;;;;;;;;26.20;90.90;;;;;;5100755;28;19996;-45
2023/07/13 03:03:08;;;;;;;;;;;26.20;90.90;;;;;;5114565;28;19908;-44
2023/07/13 03:05:33;;;;;;;;;;;26.20;91.00;;;;;;5099011;28;20404;-49
2023/07/13 03:07:59;;;;;;;;;;;26.20;90.90;;;;;;5076095;28;19908;-43
2023/07/13 03:10:24;;;;;;;;;;;26.20;90.90;;;;;;5094060;28;19914;-43
2023/07/13 03:12:50;;;;;;;;;;;26.20;90.90;;;;;;5094032;28;19908;-47
2023/07/13 03:15:16;;;;;;;;;;;26.20;90.90;;;;;;5093767;28;19912;-46
2023/07/13 03:17:41;;;;;;;;;;;26.20;90.90;;;;;;5094198;28;20319;-46
2023/07/13 03:20:07;;;;;;;;;;;26.20;90.90;;;;;;5094453;28;19912;-45
2023/07/13 03:22:32;;;;;;;;;;;26.20;90.90;;;;;;5093720;28;20378;-44
2023/07/13 03:24:58;;;;;;;;;;;26.20;91.00;;;;;;5093634;28;19977;-44
2023/07/13 03:27:23;;;;;;;;;;;26.20;91.00;;;;;;5093917;28;19912;-45
2023/07/13 03:29:49;;;;;;;;;;;26.20;91.00;;;;;;5094794;28;20405;-42
2023/07/13 03:32:14;;;;;;;;;;;26.20;91.00;;;;;;5104913;28;19908;-44
2023/07/13 03:34:39;;;;;;;;;;;26.20;91.00;;;;;;5094033;28;20017;-44
2023/07/13 03:37:05;;;;;;;;;;;26.20;91.00;;;;;;5093682;28;19912;-44
2023/07/13 03:39:31;;;;;;;;;;;26.20;91.00;;;;;;5093732;28;19951;-45
2023/07/13 03:41:56;;;;;;;;;;;26.20;91.10;;;;;;5093749;28;19963;-45
2023/07/13 03:44:21;;;;;;;;;;;26.20;91.10;;;;;;5092034;28;20053;-47
2023/07/13 03:46:47;;;;;;;;;;;26.20;91.10;;;;;;5092756;28;20002;-43
2023/07/13 03:49:12;;;;;;;;;;;26.20;91.10;;;;;;5096645;28;19914;-46
2023/07/13 03:51:38;;;;;;;;;;;26.20;91.10;;;;;;5096618;28;19908;-48
2023/07/13 03:54:04;;;;;;;;;;;26.20;91.10;;;;;;5100204;28;19916;-46
2023/07/13 03:56:30;;;;;;;;;;;26.20;91.10;;;;;;5096445;28;20339;-44
2023/07/13 03:58:56;;;;;;;;;;;26.20;91.10;;;;;;5093986;28;19922;-46
2023/07/13 04:01:22;;;;;;;;;;;26.20;91.10;;;;;;5099496;28;20018;-45
2023/07/13 04:03:48;;;;;;;;;;;26.20;91.10;;;;;;5096975;28;19908;-45
2023/07/13 04:06:21;;;;;;;;;;;26.20;91.10;;;;;;5108966;28;19923;-42
2023/07/13 04:08:48;;;;;;;;;;;26.20;91.10;;;;;;5114681;28;20591;-45
2023/07/13 04:11:14;;;;;;;;;;;26.20;91.10;;;;;;5098935;28;19916;-46
2023/07/13 04:13:40;;;;;;;;;;;26.20;91.10;;;;;;5097735;28;19966;-43
2023/07/13 04:16:05;;;;;;;;;;;26.20;91.10;;;;;;5097006;28;19916;-43
2023/07/13 04:18:31;;;;;;;;;;;26.20;91.20;;;;;;5097499;28;19919;-46
2023/07/13 04:20:56;;;;;;;;;;;26.20;91.10;;;;;;5111936;28;19947;-45
2023/07/13 04:23:22;;;;;;;;;;;26.20;90.20;;;;;;5097943;28;19951;-43
2023/07/13 04:25:49;;;;;;;;;;;26.10;89.10;;;;;;5098970;28;19965;-46
2023/07/13 04:28:15;;;;;;;;;;;26.10;88.70;;;;;;5109861;28;19919;-43
2023/07/13 04:30:40;;;;;;;;;;;26.10;90.30;;;;;;5096648;28;19908;-42
2023/07/13 04:33:06;;;;;;;;;;;25.90;85.60;;;;;;5111344;28;19912;-44
2023/07/13 04:35:31;;;;;;;;;;;25.80;86.20;;;;;;5114821;28;19912;-45
2023/07/13 04:37:57;;;;;;;;;;;25.70;86.60;;;;;;5112114;28;19978;-41
2023/07/13 04:40:22;;;;;;;;;;;25.60;86.50;;;;;;5103156;28;19926;-43
2023/07/13 04:42:48;;;;;;;;;;;25.60;86.40;;;;;;5113151;28;20369;-42
2023/07/13 04:45:14;;;;;;;;;;;25.60;86.50;;;;;;5106719;28;20020;-44
2023/07/13 04:47:41;;;;;;;;;;;25.60;86.30;;;;;;5084263;28;20205;-42
2023/07/13 04:50:08;;;;;;;;;;;25.60;86.40;;;;;;5113445;28;19966;-44
2023/07/13 04:52:34;;;;;;;;;;;25.50;86.50;;;;;;5100098;28;19912;-43
2023/07/13 04:55:00;;;;;;;;;;;25.60;86.70;;;;;;5096109;28;19915;-43
2023/07/13 04:57:26;;;;;;;;;;;25.60;87.30;;;;;;5095847;28;20384;-43
2023/07/13 04:59:51;;;;;;;;;;;25.70;88.00;;;;;;5095793;28;19919;-45
2023/07/13 05:02:17;;;;;;;;;;;25.70;88.50;;;;;;5095978;28;19934;-44
2023/07/13 05:04:42;;;;;;;;;;;25.70;88.70;;;;;;5095695;28;19908;-45
2023/07/13 05:07:07;;;;;;;;;;;25.80;89.50;;;;;;5095593;28;19997;-42
2023/07/13 05:09:33;;;;;;;;;;;25.80;89.00;;;;;;5095633;28;19919;-46
2023/07/13 05:11:58;;;;;;;;;;;25.90;89.10;;;;;;5095964;28;19909;-45
2023/07/13 05:14:24;;;;;;;;;;;25.80;89.10;;;;;;5095675;28;19919;-46
2023/07/13 05:16:49;;;;;;;;;;;25.90;89.20;;;;;;5095115;28;19919;-45
2023/07/13 05:19:15;;;;;;;;;;;25.90;89.20;;;;;;5095518;28;19912;-44
2023/07/13 05:21:41;;;;;;;;;;;25.90;89.30;;;;;;5095201;28;20376;-44
2023/07/13 05:24:06;;;;;;;;;;;25.90;89.40;;;;;;5095151;28;19947;-46
2023/07/13 05:26:32;;;;;;;;;;;25.90;89.40;;;;;;5095135;28;19915;-44
2023/07/13 05:28:57;;;;;;;;;;;25.90;89.50;;;;;;5076580;28;19912;-42
2023/07/13 05:31:22;;;;;;;;;;;25.90;89.50;;;;;;5095084;28;19908;-43
2023/07/13 05:33:48;;;;;;;;;;;25.90;89.60;;;;;;5095322;28;19908;-43
2023/07/13 05:36:13;;;;;;;;;;;25.90;89.70;;;;;;5094802;28;20377;-46
2023/07/13 05:38:40;;;;;;;;;;;25.90;89.70;;;;;;5095141;28;19912;-42
2023/07/13 05:41:05;;;;;;;;;;;25.90;89.70;;;;;;5095163;28;19909;-43
2023/07/13 05:43:31;;;;;;;;;;;25.90;89.80;;;;;;5094835;28;19961;-42
2023/07/13 05:45:56;;;;;;;;;;;25.90;89.80;;;;;;5076428;28;19923;-45
2023/07/13 05:48:22;;;;;;;;;;;25.90;89.80;;;;;;5094890;28;19916;-44
2023/07/13 05:50:48;;;;;;;;;;;25.90;89.90;;;;;;5095081;28;19912;-44
2023/07/13 05:53:13;;;;;;;;;;;25.90;89.90;;;;;;5076740;28;19958;-45
2023/07/13 05:55:47;;;;;;;;;;;25.90;89.90;;;;;;5094211;28;19908;-46
2023/07/13 05:58:13;;;;;;;;;;;25.90;89.90;;;;;;5094875;28;19928;-46
2023/07/13 06:00:38;;;;;;;;;;;25.90;89.90;;;;;;5076290;28;20023;-47
2023/07/13 06:03:04;;;;;;;;;;;25.90;89.90;;;;;;5094674;28;19942;-42
2023/07/13 06:05:29;;;;;;;;;;;25.90;89.90;;;;;;5094513;28;19977;-45
2023/07/13 06:07:55;;;;;;;;;;;25.90;89.90;;;;;;5094206;28;19912;-43
2023/07/13 06:10:20;;;;;;;;;;;25.90;89.90;;;;;;5093717;28;19990;-46
2023/07/13 06:12:46;;;;;;;;;;;25.90;89.90;;;;;;5094533;28;19909;-43
2023/07/13 06:15:11;;;;;;;;;;;25.90;89.90;;;;;;5094237;28;19908;-44
2023/07/13 06:17:37;;;;;;;;;;;25.90;89.90;;;;;;5094284;28;19912;-44
2023/07/13 06:20:02;;;;;;;;;;;25.90;90.00;;;;;;5094192;28;19951;-45
2023/07/13 06:22:28;;;;;;;;;;;25.90;90.00;;;;;;5076176;28;19908;-48
2023/07/13 06:24:53;;;;;;;;;;;25.90;90.00;;;;;;5094245;28;19919;-46
2023/07/13 06:27:19;;;;;;;;;;;25.90;90.00;;;;;;5076239;28;20001;-43
2023/07/13 06:29:45;;;;;;;;;;;25.90;90.00;;;;;;5076002;28;19923;-45
2023/07/13 06:32:10;;;;;;;;;;;25.90;90.00;;;;;;5093961;28;19909;-44
2023/07/13 06:34:36;;;;;;;;;;;25.90;90.00;;;;;;5093952;28;19931;-43
2023/07/13 06:37:01;;;;;;;;;;;25.90;90.00;;;;;;5094017;28;20408;-45
2023/07/13 06:39:27;;;;;;;;;;;25.90;90.00;;;;;;5093657;28;19912;-44
2023/07/13 06:41:52;;;;;;;;;;;25.90;90.00;;;;;;5093768;28;20355;-44
2023/07/13 06:44:17;;;;;;;;;;;25.90;90.00;;;;;;5094217;28;19920;-42
2023/07/13 06:46:43;;;;;;;;;;;25.90;89.90;;;;;;5093810;28;20085;-44
2023/07/13 06:49:09;;;;;;;;;;;25.90;89.90;;;;;;5093653;28;19957;-42
2023/07/13 06:51:34;;;;;;;;;;;25.90;89.90;;;;;;5093809;28;19919;-47
2023/07/13 06:54:00;;;;;;;;;;;25.90;89.90;;;;;;5093709;28;19908;-42
2023/07/13 06:56:25;;;;;;;;;;;25.90;89.90;;;;;;5094171;28;19912;-42
2023/07/13 06:58:50;;;;;;;;;;;25.90;89.90;;;;;;5094066;28;20371;-44
2023/07/13 07:01:16;;;;;;;;;;;25.90;89.80;;;;;;5093823;28;19915;-44
2023/07/13 07:03:41;;;;;;;;;;;25.90;89.90;;;;;;5093559;28;19914;-48
2023/07/13 07:06:15;;;;;;;;;;;25.90;89.90;;;;;;5093928;28;20323;-45
2023/07/13 07:08:41;;;;;;;;;;;25.90;89.90;;;;;;5094152;28;19915;-46
2023/07/13 07:11:08;;;;;;;;;;;25.90;89.90;;;;;;5093698;28;19912;-45
2023/07/13 07:13:34;;;;;;;;;;;25.90;89.90;;;;;;5094100;28;19919;-43
2023/07/13 07:16:00;;;;;;;;;;;25.90;89.90;;;;;;5093265;28;20006;-46
2023/07/13 07:18:26;;;;;;;;;;;25.90;89.90;;;;;;5093526;28;20337;-47
2023/07/13 07:20:51;;;;;;;;;;;25.90;89.90;;;;;;5094255;28;19908;-44
2023/07/13 07:23:18;;;;;;;;;;;25.90;89.90;;;;;;5097724;28;19908;-47
2023/07/13 07:25:44;;;;;;;;;;;25.90;89.90;;;;;;5097363;28;19964;-45
2023/07/13 07:28:10;;;;;;;;;;;25.90;89.90;;;;;;5097462;28;19908;-48
2023/07/13 07:30:35;;;;;;;;;;;25.90;89.90;;;;;;5097786;28;19915;-43
2023/07/13 07:33:01;;;;;;;;;;;25.90;89.90;;;;;;5097739;28;19930;-44
2023/07/13 07:35:26;;;;;;;;;;;25.90;89.90;;;;;;5097283;28;19908;-44
2023/07/13 07:37:52;;;;;;;;;;;25.90;89.90;;;;;;5097233;28;19966;-48
2023/07/13 07:40:18;;;;;;;;;;;25.90;90.00;;;;;;5097324;28;19940;-41
2023/07/13 07:42:43;;;;;;;;;;;25.90;90.00;;;;;;5097515;28;19961;-42
2023/07/13 07:45:11;;;;;;;;;;;25.90;90.00;;;;;;5097144;28;19920;-45
2023/07/13 07:47:36;;;;;;;;;;;25.90;89.90;;;;;;5097149;28;19914;-45
2023/07/13 07:50:02;;;;;;;;;;;25.90;89.90;;;;;;5097290;28;19999;-43
2023/07/13 07:52:28;;;;;;;;;;;25.90;89.90;;;;;;5097431;28;19912;-42
2023/07/13 07:54:53;;;;;;;;;;;25.90;89.90;;;;;;5096897;28;19924;-47
2023/07/13 07:57:18;;;;;;;;;;;25.90;89.90;;;;;;5097132;28;20015;-43
2023/07/13 07:59:44;;;;;;;;;;;25.90;90.00;;;;;;5097173;28;19916;-43
2023/07/13 08:02:10;;;;;;;;;;;25.90;90.00;;;;;;5096752;28;19915;-45
2023/07/13 08:04:35;;;;;;;;;;;25.90;90.00;;;;;;5096790;28;19908;-44
2023/07/13 08:07:02;;;;;;;;;;;25.90;90.00;;;;;;5097271;28;19938;-44
2023/07/13 08:09:28;;;;;;;;;;;25.90;90.00;;;;;;5096759;28;19987;-46
2023/07/13 08:11:54;;;;;;;;;;;25.90;90.00;;;;;;5096921;28;19919;-45
2023/07/13 08:14:20;;;;;;;;;;;25.90;90.00;;;;;;5096972;28;19909;-46
2023/07/13 08:16:45;;;;;;;;;;;25.90;90.00;;;;;;5096895;28;19912;-45
2023/07/13 08:19:11;;;;;;;;;;;25.90;90.00;;;;;;5096656;28;20286;-43
2023/07/13 08:21:36;;;;;;;;;;;25.80;90.00;;;;;;5096433;28;19908;-46
2023/07/13 08:24:02;;;;;;;;;;;25.90;90.00;;;;;;5096510;28;19908;-46
2023/07/13 08:26:27;;;;;;;;;;;25.90;90.00;;;;;;5096456;28;20355;-46
2023/07/13 08:28:53;;;;;;;;;;;25.90;90.00;;;;;;5096264;28;19914;-47
2023/07/13 08:31:19;;;;;;;;;;;25.90;90.00;;;;;;5096899;28;19908;-46
2023/07/13 08:33:45;;;;;;;;;;;25.90;90.00;;;;;;5095264;28;20275;-47
2023/07/13 08:36:10;;;;;;;;;;;25.80;90.00;;;;;;5096059;28;20431;-45
2023/07/13 08:38:36;;;;;;;;;;;25.80;90.00;;;;;;5096128;28;20024;-44
2023/07/13 08:41:09;;;;;;;;;;;25.80;90.00;;;;;;5096462;28;19908;-45
2023/07/13 08:43:36;;;;;;;;;;;25.80;90.00;;;;;;5096119;28;20271;-45
2023/07/13 08:46:07;;;;;;;;;;;25.80;90.00;;;;;;5096316;28;20264;-48
2023/07/13 08:48:56;;;;;;;;;;;25.80;90.00;;;;;;5096612;28;19965;-45
2023/07/13 08:51:41;;;;;;;;;;;25.80;90.00;;;;;;5087867;28;19915;-48
2023/07/13 08:54:21;;;;;;;;;;;25.80;90.00;;;;;;5096147;28;20266;-43
2023/07/13 08:56:49;;;;;;;;;;;25.80;90.00;;;;;;5095547;28;19919;-45
2023/07/13 08:59:16;;;;;;;;;;;25.80;90.00;;;;;;5095744;28;19923;-44
2023/07/13 09:01:48;;;;;;;;;;;25.80;90.00;;;;;;5096114;28;19924;-46
2023/07/13 09:04:18;;;;;;;;;;;25.80;90.00;;;;;;5095626;28;19908;-47
2023/07/13 09:06:53;;;;;;;;;;;25.80;90.00;;;;;;5095489;28;20010;-43
2023/07/13 09:09:41;;;;;;;;;;;25.80;90.00;;;;;;5095918;28;19915;-45
2023/07/13 09:12:09;;;;;;;;;;;25.80;90.00;;;;;;5095300;28;19955;-44
2023/07/13 09:14:43;;;;;;;;;;;25.80;90.00;;;;;;5095958;28;19993;-47
2023/07/13 09:17:15;;;;;;;;;;;25.80;90.00;;;;;;5095374;28;20010;-47
2023/07/13 09:19:40;;;;;;;;;;;25.80;90.00;;;;;;5095257;28;19943;-47
2023/07/13 09:22:10;;;;;;;;;;;25.80;90.00;;;;;;5095693;28;20342;-47
2023/07/13 09:24:37;;;;;;;;;;;25.80;90.00;;;;;;5095330;28;19915;-47
2023/07/13 09:27:09;;;;;;;;;;;25.80;90.00;;;;;;5095271;28;19966;-45
2023/07/13 09:29:34;;;;;;;;;;;25.80;90.00;;;;;;5095543;28;19918;-43
2023/07/13 09:32:05;;;;;;;;;;;25.80;90.00;;;;;;5095125;28;19999;-43
2023/07/13 09:34:32;;;;;;;;;;;25.80;90.00;;;;;;5095280;28;20006;-45
2023/07/13 09:36:57;;;;;;;;;;;25.80;90.00;;;;;;5077122;28;19995;-44
2023/07/13 09:39:42;;;;;;;;;;;25.70;90.00;;;;;;5095293;28;19962;-44
2023/07/13 09:42:10;;;;;;;;;;;25.80;90.00;;;;;;5095132;28;19969;-41
2023/07/13 09:44:51;;;;;;;;;;;25.70;90.00;;;;;;5094551;28;20343;-45
2023/07/13 09:47:23;;;;;;;;;;;25.70;90.00;;;;;;5095165;28;20268;-45
2023/07/13 09:49:53;;;;;;;;;;;25.70;90.00;;;;;;5094855;28;19943;-44
2023/07/13 09:52:19;;;;;;;;;;;25.70;90.00;;;;;;5094689;28;19909;-48
2023/07/13 09:54:48;;;;;;;;;;;25.70;89.90;;;;;;5094848;28;19912;-42
2023/07/13 09:57:16;;;;;;;;;;;25.70;89.80;;;;;;5094773;28;19912;-45
2023/07/13 09:59:46;;;;;;;;;;;25.70;89.70;;;;;;5094439;28;19912;-44
2023/07/13 10:02:32;;;;;;;;;;;25.70;89.70;;;;;;5094874;28;19990;-45
2023/07/13 10:04:59;;;;;;;;;;;25.70;89.80;;;;;;5094840;28;19994;-44
2023/07/13 10:07:24;;;;;;;;;;;25.70;89.90;;;;;;5094376;28;19912;-46
2023/07/13 10:09:54;;;;;;;;;;;25.70;89.90;;;;;;5094325;28;20270;-44
2023/07/13 10:12:20;;;;;;;;;;;25.70;89.90;;;;;;5094349;28;19952;-45
2023/07/13 10:14:46;;;;;;;;;;;25.70;89.90;;;;;;5093908;28;19912;-42
2023/07/13 10:17:13;;;;;;;;;;;25.70;89.80;;;;;;5094404;28;19913;-43
2023/07/13 10:19:40;;;;;;;;;;;25.70;89.80;;;;;;5094439;28;19912;-42
2023/07/13 10:22:09;;;;;;;;;;;25.70;89.90;;;;;;5094616;28;19931;-46
2023/07/13 10:24:37;;;;;;;;;;;25.70;89.90;;;;;;5093998;28;19919;-45
2023/07/13 10:27:07;;;;;;;;;;;25.70;89.90;;;;;;5093790;28;19908;-44
2023/07/13 10:29:36;;;;;;;;;;;25.70;89.90;;;;;;5094068;28;19908;-42
2023/07/13 10:32:09;;;;;;;;;;;25.70;89.90;;;;;;5093890;28;19915;-41
2023/07/13 10:34:34;;;;;;;;;;;25.70;89.90;;;;;;5093998;28;20285;-42
2023/07/13 10:37:01;;;;;;;;;;;25.70;90.00;;;;;;5093782;28;20027;-45
2023/07/13 10:39:27;;;;;;;;;;;25.70;90.00;;;;;;5094043;28;20011;-44
2023/07/13 10:41:59;;;;;;;;;;;25.70;89.80;;;;;;5093887;28;19954;-45
2023/07/13 10:44:28;;;;;;;;;;;25.70;89.80;;;;;;5094008;28;19924;-42
2023/07/13 10:47:13;;;;;;;;;;;25.70;89.90;;;;;;5094142;28;19908;-48
2023/07/13 10:49:40;;;;;;;;;;;25.70;90.00;;;;;;5094213;28;19908;-43
2023/07/13 10:52:05;;;;;;;;;;;25.70;90.00;;;;;;5093917;28;20324;-47
2023/07/13 10:54:37;;;;;;;;;;;25.70;90.00;;;;;;5094131;28;19912;-46
2023/07/13 10:57:18;;;;;;;;;;;25.70;90.00;;;;;;5093306;28;19953;-46
2023/07/13 10:59:47;;;;;;;;;;;25.70;90.00;;;;;;5093734;28;19912;-45
2023/07/13 11:02:22;;;;;;;;;;;25.70;90.10;;;;;;5094121;28;20337;-48
2023/07/13 11:04:49;;;;;;;;;;;25.70;90.10;;;;;;5093682;28;19916;-44
2023/07/13 11:07:23;;;;;;;;;;;25.70;90.10;;;;;;5094057;28;19908;-46
2023/07/13 11:09:49;;;;;;;;;;;25.70;90.10;;;;;;5093835;28;19915;-46
2023/07/13 11:12:17;;;;;;;;;;;25.70;90.10;;;;;;5093701;28;19908;-44
2023/07/13 11:15:02;;;;;;;;;;;25.70;90.10;;;;;;5093370;28;19908;-43
2023/07/13 11:17:48;;;;;;;;;;;25.70;90.10;;;;;;5093405;28;19918;-43
2023/07/13 11:20:13;;;;;;;;;;;25.70;90.20;;;;;;5093342;28;19912;-45
2023/07/13 11:22:49;;;;;;;;;;;25.70;90.20;;;;;;5093774;28;20423;-44
2023/07/13 11:25:26;;;;;;;;;;;25.70;90.20;;;;;;5093685;28;19912;-47
2023/07/13 11:28:12;;;;;;;;;;;25.70;90.20;;;;;;5093481;28;20003;-46
2023/07/13 11:31:00;;;;;;;;;;;25.70;90.20;;;;;;5082250;28;19915;-44
2023/07/13 11:33:37;;;;;;;;;;;25.70;90.20;;;;;;5093835;28;19999;-44
2023/07/13 11:36:04;;;;;;;;;;;25.70;90.20;;;;;;5093071;28;19969;-46
2023/07/13 11:38:40;;;;;;;;;;;25.70;90.20;;;;;;5093564;28;19919;-48
2023/07/13 11:41:17;;;;;;;;;;;25.70;90.20;;;;;;5093717;28;19931;-44
2023/07/13 11:43:44;;;;;;;;;;;25.70;90.20;;;;;;5093153;28;20335;-44
2023/07/13 11:46:13;;;;;;;;;;;25.70;90.10;;;;;;5093339;28;19995;-43
2023/07/13 11:48:39;;;;;;;;;;;25.70;90.10;;;;;;5093378;28;20056;-46
2023/07/13 11:51:05;;;;;;;;;;;25.70;90.10;;;;;;5093355;28;19954;-47
2023/07/13 11:53:37;;;;;;;;;;;25.70;90.10;;;;;;5093612;28;19931;-46
2023/07/13 11:56:03;;;;;;;;;;;25.70;90.40;;;;;;5093500;28;19908;-44
2023/07/13 11:58:28;;;;;;;;;;;25.70;90.10;;;;;;5093440;28;19920;-44
2023/07/13 12:00:55;;;;;;;;;;;25.70;90.20;;;;;;5093178;28;20003;-48
2023/07/13 12:03:24;;;;;;;;;;;25.70;90.10;;;;;;5092991;28;19931;-45
2023/07/13 12:06:00;;;;;;;;;;;25.70;90.10;;;;;;5093298;28;19908;-47
2023/07/13 12:08:26;;;;;;;;;;;25.70;90.10;;;;;;5094613;28;19908;-44
2023/07/13 12:10:56;;;;;;;;;;;25.70;90.10;;;;;;5096729;28;19912;-47
2023/07/13 12:13:21;;;;;;;;;;;25.70;90.10;;;;;;5096855;28;19994;-45
2023/07/13 12:15:48;;;;;;;;;;;25.70;90.10;;;;;;5096918;28;19908;-46
2023/07/13 12:18:15;;;;;;;;;;;25.70;90.10;;;;;;5096478;28;19916;-47
2023/07/13 12:20:40;;;;;;;;;;;25.70;90.10;;;;;;5096883;28;19908;-45
2023/07/13 12:23:14;;;;;;;;;;;25.70;90.10;;;;;;5096638;28;19909;-43
2023/07/13 12:25:40;;;;;;;;;;;25.70;90.10;;;;;;5096517;28;19908;-46
2023/07/13 12:28:22;;;;;;;;;;;25.60;90.10;;;;;;5096555;28;19961;-45
2023/07/13 12:30:48;;;;;;;;;;;25.70;90.10;;;;;;5096429;28;19908;-46
2023/07/13 12:33:14;;;;;;;;;;;25.70;90.10;;;;;;5096678;28;20053;-42
2023/07/13 12:35:41;;;;;;;;;;;25.70;90.10;;;;;;5096207;28;19951;-47
2023/07/13 12:38:10;;;;;;;;;;;25.70;90.10;;;;;;5096096;28;20009;-47
2023/07/13 12:40:36;;;;;;;;;;;25.70;90.10;;;;;;5096212;28;19912;-45
2023/07/13 12:43:04;;;;;;;;;;;25.60;90.10;;;;;;5096134;28;19915;-44
2023/07/13 12:45:30;;;;;;;;;;;25.70;90.10;;;;;;5096363;28;20367;-46
2023/07/13 12:47:59;;;;;;;;;;;25.70;90.10;;;;;;5095825;28;19969;-42
2023/07/13 12:50:36;;;;;;;;;;;25.60;90.00;;;;;;5096027;28;20006;-47
2023/07/13 12:53:07;;;;;;;;;;;25.70;90.10;;;;;;5095888;28;20359;-43
2023/07/13 12:55:40;;;;;;;;;;;25.70;90.10;;;;;;5095952;28;19912;-44
2023/07/13 12:58:06;;;;;;;;;;;25.70;90.10;;;;;;5095617;28;19931;-47
2023/07/13 13:00:38;;;;;;;;;;;25.70;90.10;;;;;;5095987;28;19966;-44
2023/07/13 13:03:06;;;;;;;;;;;25.60;90.00;;;;;;5077825;28;19912;-46
2023/07/13 13:05:33;;;;;;;;;;;25.70;90.10;;;;;;5095860;28;19951;-43
2023/07/13 13:07:59;;;;;;;;;;;25.60;90.00;;;;;;5095570;28;19961;-45
2023/07/13 13:10:25;;;;;;;;;;;25.60;90.00;;;;;;5095816;28;20006;-46
2023/07/13 13:12:52;;;;;;;;;;;25.70;90.10;;;;;;5095366;28;20320;-44
2023/07/13 13:15:17;;;;;;;;;;;25.60;90.10;;;;;;5095475;28;19915;-46
2023/07/13 13:17:43;;;;;;;;;;;25.70;90.10;;;;;;5095585;28;20279;-45
2023/07/13 13:20:19;;;;;;;;;;;25.60;90.10;;;;;;5094909;28;19918;-44
2023/07/13 13:22:44;;;;;;;;;;;25.60;90.10;;;;;;5095644;28;19912;-44
2023/07/13 13:25:11;;;;;;;;;;;25.60;90.10;;;;;;5095187;28;19914;-42
2023/07/13 13:27:36;;;;;;;;;;;25.60;90.00;;;;;;5095747;28;19962;-44
2023/07/13 13:30:02;;;;;;;;;;;25.60;90.00;;;;;;5095293;28;19912;-43
2023/07/13 13:32:28;;;;;;;;;;;25.60;90.10;;;;;;5095630;28;20264;-44
2023/07/13 13:34:53;;;;;;;;;;;25.60;90.00;;;;;;5095104;28;19908;-44
2023/07/13 13:37:23;;;;;;;;;;;25.60;90.00;;;;;;5094946;28;20010;-45
2023/07/13 13:39:48;;;;;;;;;;;25.60;90.00;;;;;;5094990;28;19912;-45
2023/07/13 13:42:14;;;;;;;;;;;25.60;90.10;;;;;;5076802;28;19919;-46
2023/07/13 13:44:43;;;;;;;;;;;25.60;90.10;;;;;;5094846;28;19926;-45
2023/07/13 13:47:21;;;;;;;;;;;25.60;90.00;;;;;;5094737;28;20007;-46
2023/07/13 13:49:47;;;;;;;;;;;25.60;90.00;;;;;;5094712;28;19908;-43
2023/07/13 13:52:12;;;;;;;;;;;25.60;90.00;;;;;;5094822;28;19908;-43
2023/07/13 13:54:38;;;;;;;;;;;25.60;90.10;;;;;;5094792;28;19909;-46
2023/07/13 13:57:04;;;;;;;;;;;25.60;89.90;;;;;;5094312;28;20022;-43
2023/07/13 13:59:32;;;;;;;;;;;25.60;90.00;;;;;;5094190;28;19913;-45
2023/07/13 14:01:59;;;;;;;;;;;25.60;90.00;;;;;;5094377;28;19908;-46
2023/07/13 14:04:25;;;;;;;;;;;25.60;90.00;;;;;;5094438;28;20034;-48
2023/07/13 14:06:50;;;;;;;;;;;25.60;90.00;;;;;;5094698;28;19994;-45
2023/07/13 14:09:18;;;;;;;;;;;25.60;90.00;;;;;;5094706;28;19915;-46
2023/07/13 14:11:45;;;;;;;;;;;25.60;90.00;;;;;;5094614;28;19912;-47
2023/07/13 14:14:15;;;;;;;;;;;25.60;90.00;;;;;;5094190;28;20025;-45
2023/07/13 14:16:42;;;;;;;;;;;25.60;90.00;;;;;;5094170;28;19912;-45